Pagrindinis puslapis
METAR-TAF:

METAR-TAF

Oro uostai :

Davidas, Panama

platuma: 08-24N, ilguma: 082-25W, Aukštis: 29 m

Dabartinis oras

Ataskaita buvo paskelbta 23 minutes, ne 00:00 UTC
Vėjas 3 kt iš Pietryčių
Temperatūra 23°C
Drėgmė 100%
Slėgis 1011 hPa
Matomumas: 9000 m
Su prošvaistėmis ne aukštis 1200 ft, Liūtiniai kamuoliniai debesys.

METAR: MPDA 230000Z 14003KT 9000 TSVCSH BKN012CB 23/23 Q1011 RWY WET

Laikas: 19:23 (00:23 UTC)

Prognozė

Ataskaita buvo paskelbta 1 valandą ir 23 minutes, ne 23:00 UTC
Prognozė galioja nuo 23 metu 00 UTC su 23 metu 12 UTC
Vėjas 6 kt iš Pietų/Pietvakarių
Matomumas 10 km arba daugiau
Išsisklaidę debesys ne aukštis 1800 ft
Išsisklaidę debesys ne aukštis 9000 ft
Laikinai
nuo 23 metu 03 UTC su 23 metu 05 UTC
Vėjas 2 kt nuo kintamojo kryptimis

TAF: MPDA 222300Z 2300/2312 21006KT 9999 SCT018 SCT090 TEMPO 2303/2305 VRB02KT

Orai ataskaitas ir orų prognozės (METAR, TAF).

turimą stotys yra geltonos ir raudonos taškus žemėlapyje.

Perkelti pele per norėdami pamatyti stoties vardą.

Tada spustelėkite, norėdami matyti oro stebėjimo ir prognozės.

Norėdami pakeisti žemėlapį: spustelėkite ant žalios mygtukų su juodo kryžiaus žemyn,; žalią mygtuką su brūkšneliu, jei norite nutolinti; arba žalių rodyklių gretimoms žemėlapius.


METAR-TAF: